Time;durP1;ratioP1;P1;durP2;ratioP2;P2;SDS_P1;SDS_P2;PMS_P1;PMS_P2;Temp;Humidity;BMP_temperature;BMP_pressure;BME280_temperature;BME280_humidity;BME280_pressure;Samples;Min_cycle;Max_cycle;Signal;HPM_P1;HPM_P2
2023/06/01 00:01:12;;;;;;;9.05;6.00;;;13.30;99.90;;;;;;2603628;54;20026;31
2023/06/01 00:03:55;;;;;;;9.43;4.97;;;13.30;99.90;;;;;;2603294;54;20026;31
2023/06/01 00:06:33;;;;;;;8.95;4.57;;;13.20;99.90;;;;;;2603384;54;20863;31
2023/06/01 00:09:12;;;;;;;11.38;4.75;;;13.20;99.90;;;;;;2612630;46;20093;31
2023/06/01 00:11:49;;;;;;;12.45;5.35;;;13.10;99.90;;;;;;2603458;54;20042;31
2023/06/01 00:14:24;;;;;;;12.25;6.15;;;13.10;99.90;;;;;;2603665;54;20022;31
2023/06/01 00:16:59;;;;;;;9.47;5.03;;;13.10;99.90;;;;;;2603321;54;20022;31
2023/06/01 00:19:38;;;;;;;10.95;5.60;;;13.10;99.90;;;;;;2603497;54;20787;31
2023/06/01 00:22:13;;;;;;;12.18;6.43;;;13.00;99.90;;;;;;2603362;54;20900;31
2023/06/01 00:24:48;;;;;;;13.02;6.30;;;12.90;99.90;;;;;;2603522;54;20120;31
2023/06/01 00:27:24;;;;;;;14.70;6.13;;;12.90;99.90;;;;;;2603443;54;20022;31
2023/06/01 00:30:00;;;;;;;11.23;5.43;;;12.90;99.90;;;;;;2603272;54;19935;31
2023/06/01 00:32:34;;;;;;;14.60;5.45;;;12.80;99.90;;;;;;2603450;54;20883;31
2023/06/01 00:35:12;;;;;;;10.43;5.03;;;12.80;99.90;;;;;;2603520;54;20030;31
2023/06/01 00:37:47;;;;;;;12.10;5.47;;;12.70;99.90;;;;;;2603455;54;20032;31
2023/06/01 00:40:23;;;;;;;11.40;4.55;;;12.70;99.90;;;;;;2622006;46;20031;31
2023/06/01 00:42:57;;;;;;;9.85;6.05;;;12.70;99.90;;;;;;2603315;54;20022;31
2023/06/01 00:45:33;;;;;;;11.93;5.55;;;12.70;99.90;;;;;;2621535;46;20049;31
2023/06/01 00:48:10;;;;;;;7.85;5.10;;;12.60;99.90;;;;;;2603434;54;20140;31
2023/06/01 00:50:48;;;;;;;9.68;4.50;;;12.60;99.90;;;;;;2613519;46;20058;31
2023/06/01 00:53:23;;;;;;;14.50;5.72;;;12.60;99.90;;;;;;2701834;39;21603;31
2023/06/01 00:56:04;;;;;;;9.40;5.20;;;12.50;99.90;;;;;;2621803;46;20030;31
2023/06/01 00:58:38;;;;;;;11.38;6.00;;;12.50;99.90;;;;;;2603221;54;20112;31
2023/06/01 01:01:18;;;;;;;7.80;4.80;;;12.40;99.90;;;;;;2603402;54;20883;31
2023/06/01 01:03:57;;;;;;;11.73;5.75;;;12.40;99.90;;;;;;2621847;46;21970;31
2023/06/01 01:06:56;;;;;;;7.53;4.70;;;12.40;99.90;;;;;;2603431;54;20022;31
2023/06/01 01:09:33;;;;;;;9.75;5.43;;;12.30;99.90;;;;;;2603162;54;21620;31
2023/06/01 01:12:17;;;;;;;12.85;5.20;;;12.30;99.90;;;;;;2603296;54;20022;31
2023/06/01 01:14:55;;;;;;;10.57;5.05;;;12.30;99.90;;;;;;2603124;54;20026;31
2023/06/01 01:17:34;;;;;;;14.30;5.85;;;12.20;99.90;;;;;;2603109;54;20033;31
2023/06/01 01:20:12;;;;;;;11.77;5.77;;;12.20;99.90;;;;;;2603218;54;20048;31
2023/06/01 01:23:05;;;;;;;9.27;5.25;;;12.10;99.90;;;;;;2603244;54;20880;31
2023/06/01 01:26:19;;;;;;;11.30;4.77;;;12.10;99.90;;;;;;2621734;46;20030;31
2023/06/01 01:31:30;;;;;;;8.10;4.75;;;12.10;99.90;;;;;;2603068;54;20035;31
2023/06/01 01:34:05;;;;;;;7.73;4.60;;;12.10;99.90;;;;;;2621607;46;20140;31
2023/06/01 01:36:40;;;;;;;9.10;5.18;;;12.00;99.90;;;;;;2603221;54;20543;31
2023/06/01 01:39:15;;;;;;;10.75;5.00;;;12.00;99.90;;;;;;2603323;54;20026;31
2023/06/01 01:41:50;;;;;;;10.48;4.75;;;12.00;99.90;;;;;;2602881;54;20038;31
2023/06/01 01:44:26;;;;;;;8.27;4.25;;;11.90;99.90;;;;;;2603186;54;20030;31
2023/06/01 01:47:10;;;;;;;8.50;4.60;;;11.90;99.90;;;;;;2603055;54;20026;31
2023/06/01 01:49:45;;;;;;;8.77;4.27;;;11.90;99.90;;;;;;2603032;54;19935;31
2023/06/01 01:52:23;;;;;;;11.30;4.80;;;11.90;99.90;;;;;;2603034;54;20251;31
2023/06/01 01:54:58;;;;;;;7.32;4.88;;;11.80;99.90;;;;;;2701661;39;21450;31
2023/06/01 01:57:34;;;;;;;7.50;4.35;;;11.80;99.90;;;;;;2603011;54;20026;31
2023/06/01 02:00:12;;;;;;;9.67;4.83;;;11.70;99.90;;;;;;2603005;54;20261;31
2023/06/01 02:02:53;;;;;;;8.25;4.60;;;11.70;99.90;;;;;;2603102;54;20923;31
2023/06/01 02:05:28;;;;;;;9.63;4.90;;;11.70;99.90;;;;;;2621419;47;20037;31
2023/06/01 02:08:03;;;;;;;9.93;4.18;;;11.60;99.90;;;;;;2701455;39;20521;31
2023/06/01 02:10:38;;;;;;;7.67;4.30;;;11.50;99.90;;;;;;2602839;54;20826;31
2023/06/01 02:13:13;;;;;;;9.60;4.38;;;11.60;99.90;;;;;;2621302;47;20124;31
2023/06/01 02:15:49;;;;;;;6.93;4.00;;;11.60;99.90;;;;;;2603212;54;20030;31
2023/06/01 02:18:29;;;;;;;8.05;4.75;;;11.60;99.90;;;;;;2603078;54;20030;31
2023/06/01 02:21:04;;;;;;;8.03;4.40;;;11.50;99.90;;;;;;2602953;54;20110;31
2023/06/01 02:23:39;;;;;;;9.30;4.50;;;11.50;99.90;;;;;;2603110;54;20026;31
2023/06/01 02:26:13;;;;;;;5.38;3.72;;;11.40;99.90;;;;;;2618454;47;20057;31
2023/06/01 02:28:48;;;;;;;7.93;3.78;;;11.50;99.90;;;;;;2603660;54;20030;31
2023/06/01 02:31:23;;;;;;;8.00;4.90;;;11.40;99.90;;;;;;2622165;46;20034;31
2023/06/01 02:34:08;;;;;;;8.15;4.50;;;11.40;99.90;;;;;;2603778;54;20145;31
2023/06/01 02:36:43;;;;;;;12.85;4.90;;;11.40;99.90;;;;;;2603810;54;20050;31
2023/06/01 02:39:18;;;;;;;7.23;4.43;;;11.40;99.90;;;;;;2622293;46;20108;31
2023/06/01 02:41:53;;;;;;;9.80;4.60;;;11.30;99.90;;;;;;2603827;54;20030;31
2023/06/01 02:44:26;;;;;;;10.93;4.70;;;11.30;99.90;;;;;;2603796;54;20026;31
2023/06/01 02:47:01;;;;;;;10.05;4.32;;;11.30;99.90;;;;;;2603665;54;20026;31
2023/06/01 02:49:39;;;;;;;8.30;4.20;;;11.20;99.90;;;;;;2603792;54;20877;31
2023/06/01 02:52:13;;;;;;;7.70;4.72;;;11.20;99.90;;;;;;2603494;54;20045;31
2023/06/01 02:54:48;;;;;;;9.00;4.32;;;11.20;99.90;;;;;;2603639;54;20973;31
2023/06/01 02:57:47;;;;;;;7.95;4.63;;;11.20;99.90;;;;;;2702525;39;21010;31
2023/06/01 03:00:27;;;;;;;6.90;3.80;;;11.20;99.90;;;;;;2612964;46;20023;31
2023/06/01 03:03:03;;;;;;;5.90;4.10;;;11.20;99.90;;;;;;2622008;46;20034;31
2023/06/01 03:05:47;;;;;;;9.73;4.47;;;11.20;99.90;;;;;;2603684;54;20089;31
2023/06/01 03:08:41;;;;;;;7.50;4.00;;;11.10;99.90;;;;;;2603657;54;20077;31
2023/06/01 03:11:33;;;;;;;10.00;4.83;;;11.20;99.90;;;;;;2603593;54;20038;31
2023/06/01 03:14:10;;;;;;;11.50;4.63;;;11.10;99.90;;;;;;2621904;46;21587;31
2023/06/01 03:16:47;;;;;;;8.30;4.40;;;11.10;99.90;;;;;;2603033;54;20022;31
2023/06/01 03:19:27;;;;;;;7.72;4.05;;;11.10;99.90;;;;;;2603697;54;20898;31
2023/06/01 03:22:09;;;;;;;8.43;4.55;;;11.10;99.90;;;;;;2603617;54;20105;31
2023/06/01 03:24:49;;;;;;;8.60;4.30;;;11.20;99.90;;;;;;2603709;54;20033;31
2023/06/01 03:27:31;;;;;;;6.65;4.05;;;11.10;99.90;;;;;;2622391;46;20029;31
2023/06/01 03:30:09;;;;;;;7.82;4.82;;;11.10;99.90;;;;;;2603577;54;20080;31
2023/06/01 03:32:47;;;;;;;5.78;3.78;;;11.20;99.90;;;;;;2603514;54;20786;31
2023/06/01 03:35:26;;;;;;;7.90;4.38;;;11.20;99.90;;;;;;2602890;54;20026;31
2023/06/01 03:38:07;;;;;;;9.23;4.90;;;11.20;99.90;;;;;;2603191;54;20728;31
2023/06/01 03:40:44;;;;;;;5.70;3.63;;;11.30;99.90;;;;;;2603781;54;20831;31
2023/06/01 03:43:20;;;;;;;11.30;4.40;;;11.30;99.90;;;;;;2603392;54;20940;31
2023/06/01 03:45:56;;;;;;;12.30;4.50;;;11.40;99.90;;;;;;2602699;54;20026;31
2023/06/01 03:48:33;;;;;;;7.93;3.80;;;11.40;99.90;;;;;;2603463;54;20124;31
2023/06/01 03:51:09;;;;;;;8.60;3.85;;;11.40;99.90;;;;;;2602677;54;20022;31
2023/06/01 03:53:49;;;;;;;9.23;4.67;;;11.50;99.90;;;;;;2602706;54;20109;31
2023/06/01 03:56:25;;;;;;;8.13;5.15;;;11.40;99.90;;;;;;2603424;54;21203;31
2023/06/01 03:59:06;;;;;;;11.40;4.90;;;11.60;99.90;;;;;;2602739;54;20025;31
2023/06/01 04:01:42;;;;;;;8.45;4.85;;;11.60;99.90;;;;;;2622370;46;20837;31
2023/06/01 04:04:21;;;;;;;9.37;5.17;;;11.80;99.90;;;;;;2612048;46;20026;31
2023/06/01 04:07:04;;;;;;;9.37;5.07;;;11.90;99.90;;;;;;2602671;54;20057;31
2023/06/01 04:09:44;;;;;;;8.40;5.13;;;12.00;99.90;;;;;;2602864;54;20029;31
2023/06/01 04:12:22;;;;;;;11.00;6.03;;;12.20;99.90;;;;;;2602619;54;20093;31
2023/06/01 04:14:59;;;;;;;8.30;5.65;;;12.30;99.90;;;;;;2610639;46;20927;31
2023/06/01 04:17:38;;;;;;;13.15;6.55;;;12.50;99.90;;;;;;2603297;54;20033;31
2023/06/01 04:20:17;;;;;;;9.13;6.63;;;12.70;99.90;;;;;;2603401;54;20878;31
2023/06/01 04:22:54;;;;;;;15.15;6.70;;;12.80;99.90;;;;;;2603517;54;20046;31
2023/06/01 04:25:34;;;;;;;10.52;6.40;;;13.00;99.90;;;;;;2603505;54;25029;31
2023/06/01 04:28:11;;;;;;;13.20;7.30;;;13.20;99.90;;;;;;2603543;54;20034;31
2023/06/01 04:30:51;;;;;;;14.00;7.72;;;13.30;99.90;;;;;;2622208;46;20033;31
2023/06/01 04:33:30;;;;;;;12.05;7.25;;;13.50;99.90;;;;;;2603164;54;20140;31
2023/06/01 04:36:06;;;;;;;11.52;7.43;;;13.60;99.90;;;;;;2621909;46;20794;31
2023/06/01 04:38:50;;;;;;;12.60;8.20;;;13.80;99.90;;;;;;2603530;54;20022;31
2023/06/01 04:41:35;;;;;;;11.65;8.40;;;13.90;99.90;;;;;;2621729;46;20088;31
2023/06/01 04:44:12;;;;;;;14.45;7.85;;;14.10;99.90;;;;;;2605196;46;20034;31
2023/06/01 04:46:51;;;;;;;13.73;8.50;;;14.20;99.90;;;;;;2621708;46;20030;31
2023/06/01 04:49:28;;;;;;;11.48;7.60;;;14.30;99.90;;;;;;2603202;54;20971;31
2023/06/01 04:52:04;;;;;;;12.30;8.13;;;14.40;99.90;;;;;;2622063;46;20888;31
2023/06/01 04:54:42;;;;;;;12.95;7.15;;;14.40;99.90;;;;;;2602748;54;20031;31
2023/06/01 04:57:26;;;;;;;11.18;6.95;;;14.50;99.90;;;;;;2603365;54;20136;31
2023/06/01 05:00:04;;;;;;;12.53;7.07;;;14.70;99.90;;;;;;2621864;46;20034;31
2023/06/01 05:02:39;;;;;;;12.02;6.82;;;15.00;99.90;;;;;;2603273;54;20081;31
2023/06/01 05:05:17;;;;;;;11.77;6.80;;;15.20;99.90;;;;;;2603388;54;20877;31
2023/06/01 05:07:54;;;;;;;11.25;6.50;;;15.50;99.90;;;;;;2621555;46;20057;31
2023/06/01 05:10:33;;;;;;;13.30;6.27;;;15.80;99.90;;;;;;2701400;39;21654;31
2023/06/01 05:13:13;;;;;;;12.32;6.13;;;16.00;99.90;;;;;;2603191;54;20250;31
2023/06/01 05:15:50;;;;;;;8.48;5.35;;;16.20;99.90;;;;;;2603152;54;20026;31
2023/06/01 05:18:28;;;;;;;11.52;6.00;;;16.60;99.90;;;;;;2603345;54;20917;31
2023/06/01 05:21:03;;;;;;;8.07;5.33;;;16.90;99.90;;;;;;2602884;54;20490;31
2023/06/01 05:23:38;;;;;;;;;;;17.20;99.90;;;;;;2621652;46;20093;31
2023/06/01 05:26:14;;;;;;;16.97;4.47;;;17.50;99.90;;;;;;2621802;46;20749;31
2023/06/01 05:28:58;;;;;;;12.95;5.10;;;17.80;99.90;;;;;;2603098;54;20089;31
2023/06/01 05:31:36;;;;;;;14.18;4.82;;;18.10;99.90;;;;;;2602380;54;20038;31
2023/06/01 05:34:13;;;;;;;11.95;5.05;;;18.30;99.90;;;;;;2602576;54;20026;31
2023/06/01 05:36:51;;;;;;;11.02;4.80;;;18.60;99.90;;;;;;2772912;31;20619;31
2023/06/01 05:39:28;;;;;;;11.80;4.80;;;18.90;99.90;;;;;;2603321;54;20037;31
2023/06/01 05:42:11;;;;;;;10.43;4.03;;;19.20;99.90;;;;;;2602262;54;21334;31
2023/06/01 05:44:50;;;;;;;12.38;4.80;;;19.50;99.90;;;;;;2603165;54;20763;31
2023/06/01 05:47:28;;;;;;;11.93;4.93;;;19.70;99.90;;;;;;2603122;54;20573;31
2023/06/01 05:50:06;;;;;;;12.57;4.63;;;20.10;99.90;;;;;;2603033;54;20221;31
2023/06/01 05:52:43;;;;;;;13.67;4.90;;;20.30;99.90;;;;;;2621453;46;20027;31
2023/06/01 05:55:22;;;;;;;11.77;4.68;;;20.50;99.90;;;;;;2621504;46;20038;31
2023/06/01 05:58:01;;;;;;;9.77;3.95;;;20.70;99.90;;;;;;2602953;54;20601;31
2023/06/01 06:00:40;;;;;;;10.45;4.28;;;21.00;99.90;;;;;;2701855;39;20996;31
2023/06/01 06:03:18;;;;;;;7.07;4.32;;;21.20;99.90;;;;;;2603844;54;21256;31
2023/06/01 06:05:55;;;;;;;5.50;3.70;;;21.40;99.90;;;;;;2603978;54;20027;31
2023/06/01 06:08:33;;;;;;;12.00;3.92;;;21.70;99.90;;;;;;2603873;54;19942;31
2023/06/01 06:13:45;;;;;;;8.35;3.58;;;22.10;99.90;;;;;;2603738;54;20026;31
2023/06/01 06:16:28;;;;;;;10.10;3.10;;;22.40;99.90;;;;;;2622737;46;20034;31
2023/06/01 06:19:10;;;;;;;7.95;3.90;;;22.70;99.90;;;;;;2622300;46;20085;31
2023/06/01 06:21:49;;;;;;;16.38;3.95;;;23.00;99.90;;;;;;2604010;54;20027;31
2023/06/01 06:24:26;;;;;;;7.25;3.15;;;23.00;99.90;;;;;;2603976;54;20511;31
2023/06/01 06:27:03;;;;;;;10.90;3.60;;;23.30;99.90;;;;;;2622122;46;20023;31
2023/06/01 06:29:41;;;;;;;10.65;3.47;;;23.40;99.90;;;;;;2702459;39;21550;31
2023/06/01 06:32:24;;;;;;;8.55;2.90;;;23.60;99.90;;;;;;2604009;54;20164;31
2023/06/01 06:34:59;;;;;;;13.02;3.47;;;23.70;99.90;;;;;;2603786;54;20030;31
2023/06/01 06:37:36;;;;;;;;;;;24.00;99.90;;;;;;2603959;54;20026;31
2023/06/01 06:40:14;;;;;;;6.50;2.95;;;24.20;99.90;;;;;;2603042;54;19950;31
2023/06/01 06:42:52;;;;;;;6.00;2.75;;;24.30;99.90;;;;;;2603010;54;20839;31
2023/06/01 06:45:27;;;;;;;19.63;3.25;;;24.40;99.90;;;;;;2612557;46;20026;31
2023/06/01 06:48:06;;;;;;;7.23;2.63;;;24.60;99.90;;;;;;2603728;54;20125;31
2023/06/01 06:50:44;;;;;;;10.15;2.65;;;24.90;99.90;;;;;;2603582;54;20274;31
2023/06/01 06:53:22;;;;;;;8.85;2.90;;;25.00;99.90;;;;;;2603767;54;20098;31
2023/06/01 06:56:01;;;;;;;4.75;2.10;;;25.20;99.90;;;;;;2603577;54;20781;31
2023/06/01 06:58:37;;;;;;;4.57;2.08;;;25.40;99.70;;;;;;2701632;39;20489;31
2023/06/01 07:01:15;;;;;;;8.80;2.53;;;25.60;98.50;;;;;;2622408;46;20508;31
2023/06/01 07:03:57;;;;;;;11.93;2.83;;;25.70;97.40;;;;;;2602820;54;20802;31
2023/06/01 07:06:33;;;;;;;7.88;2.03;;;25.90;96.00;;;;;;2621489;46;20022;31
2023/06/01 07:09:17;;;;;;;5.15;2.15;;;26.10;95.10;;;;;;2602688;54;20171;31
2023/06/01 07:11:56;;;;;;;5.57;2.38;;;26.30;95.40;;;;;;2700898;39;20327;31
2023/06/01 07:14:31;;;;;;;9.27;3.00;;;26.30;93.10;;;;;;2701897;39;21669;31
2023/06/01 07:17:09;;;;;;;5.50;2.80;;;26.50;93.20;;;;;;2622425;46;20030;31
2023/06/01 07:19:48;;;;;;;6.27;3.00;;;26.50;93.00;;;;;;2612982;46;20063;31
2023/06/01 07:22:25;;;;;;;12.38;3.40;;;26.70;92.50;;;;;;2602946;54;20961;31
2023/06/01 07:25:01;;;;;;;4.90;2.60;;;26.60;91.30;;;;;;2602866;54;20034;31
2023/06/01 07:27:43;;;;;;;7.20;2.57;;;26.70;91.10;;;;;;2622077;46;20023;31
2023/06/01 07:30:20;;;;;;;7.00;2.65;;;26.80;91.20;;;;;;2603095;54;20328;31
2023/06/01 07:32:55;;;;;;;7.72;2.85;;;27.00;91.00;;;;;;2603598;54;20048;31
2023/06/01 07:35:36;;;;;;;5.28;2.30;;;27.10;91.20;;;;;;2603031;54;20034;31
2023/06/01 07:38:14;;;;;;;4.22;2.35;;;27.20;90.90;;;;;;2701307;39;21635;31
2023/06/01 07:40:56;;;;;;;5.37;2.57;;;27.40;90.60;;;;;;2622011;46;20100;31
2023/06/01 07:43:35;;;;;;;7.40;4.10;;;27.60;89.20;;;;;;2602974;54;20889;31
2023/06/01 07:46:12;;;;;;;4.73;2.90;;;27.60;86.60;;;;;;2702306;39;20517;31
2023/06/01 07:48:50;;;;;;;7.10;2.50;;;27.80;85.40;;;;;;2603670;54;20847;31
2023/06/01 07:54:04;;;;;;;6.10;2.30;;;28.00;86.40;;;;;;2622185;46;20033;31
2023/06/01 07:56:42;;;;;;;2.78;1.92;;;28.20;85.50;;;;;;2621932;46;21586;31
2023/06/01 07:59:21;;;;;;;4.90;1.70;;;28.30;82.50;;;;;;2687123;39;20953;31
2023/06/01 08:02:00;;;;;;;3.90;1.65;;;28.40;82.50;;;;;;2602609;54;20096;31
2023/06/01 08:04:38;;;;;;;3.00;1.83;;;28.40;81.00;;;;;;2602840;54;20046;31
2023/06/01 08:07:16;;;;;;;4.65;1.90;;;28.30;79.50;;;;;;2602518;54;20780;31
2023/06/01 08:09:57;;;;;;;5.72;2.17;;;28.30;80.40;;;;;;2602928;54;20890;31
2023/06/01 08:12:42;;;;;;;3.08;1.90;;;28.50;80.30;;;;;;2601437;54;20171;31
2023/06/01 08:15:20;;;;;;;5.70;1.70;;;28.70;81.30;;;;;;2620708;46;20049;31
2023/06/01 08:17:54;;;;;;;5.10;1.80;;;28.70;80.10;;;;;;2602409;54;20398;31
2023/06/01 08:20:35;;;;;;;3.88;1.75;;;28.90;78.70;;;;;;2602647;54;20046;31
2023/06/01 08:23:11;;;;;;;4.73;1.70;;;28.90;78.10;;;;;;2606472;46;20030;31
2023/06/01 08:25:52;;;;;;;5.88;1.92;;;29.10;79.10;;;;;;2621372;47;20111;31
2023/06/01 08:28:32;;;;;;;2.55;1.48;;;29.10;76.70;;;;;;2602835;54;20108;31
2023/06/01 08:31:09;;;;;;;3.87;1.87;;;29.10;75.20;;;;;;2603289;54;20102;31
2023/06/01 08:33:48;;;;;;;5.10;2.20;;;29.20;75.90;;;;;;2602597;54;20900;31
2023/06/01 08:36:24;;;;;;;5.75;1.60;;;29.30;73.70;;;;;;2602748;54;20065;31
2023/06/01 08:39:03;;;;;;;3.40;1.80;;;29.40;74.60;;;;;;2620862;46;20087;31
2023/06/01 08:41:44;;;;;;;4.40;1.70;;;29.60;75.80;;;;;;2602451;54;20926;31
2023/06/01 08:44:20;;;;;;;4.47;1.48;;;29.70;74.10;;;;;;2602736;54;20052;31
2023/06/01 08:46:58;;;;;;;5.00;1.85;;;29.90;74.40;;;;;;2603014;54;20072;31
2023/06/01 08:49:34;;;;;;;1.65;1.23;;;29.90;72.10;;;;;;2602873;54;20769;31
2023/06/01 08:52:11;;;;;;;5.00;1.48;;;29.90;72.20;;;;;;2602963;54;20037;31
2023/06/01 08:54:48;;;;;;;2.88;1.50;;;30.00;72.10;;;;;;2603317;54;20898;31
2023/06/01 08:57:31;;;;;;;2.33;1.23;;;30.00;73.20;;;;;;2603342;54;21016;31
2023/06/01 09:00:13;;;;;;;4.97;1.08;;;30.00;72.20;;;;;;2602812;54;20541;31
2023/06/01 09:02:50;;;;;;;1.90;1.30;;;30.00;69.80;;;;;;2603127;54;20023;31
2023/06/01 09:05:27;;;;;;;;;;;30.00;70.00;;;;;;2602672;54;20860;31
2023/06/01 09:08:02;;;;;;;4.50;1.15;;;30.10;69.80;;;;;;2603227;54;20848;31
2023/06/01 09:10:37;;;;;;;2.40;1.08;;;30.20;69.70;;;;;;2601970;54;20358;31
2023/06/01 09:13:16;;;;;;;5.03;1.30;;;30.30;68.50;;;;;;2602776;54;20038;31
2023/06/01 09:15:55;;;;;;;4.15;1.35;;;30.40;68.40;;;;;;2602592;54;20048;31
2023/06/01 09:18:36;;;;;;;4.70;1.10;;;30.40;68.20;;;;;;2620936;46;20050;31
2023/06/01 09:21:15;;;;;;;2.40;1.10;;;30.50;68.10;;;;;;2603004;54;20126;31
2023/06/01 09:23:50;;;;;;;4.90;2.03;;;30.50;67.60;;;;;;2603057;54;20041;31
2023/06/01 09:26:29;;;;;;;2.55;1.20;;;30.60;67.10;;;;;;2621777;46;20774;31
2023/06/01 09:29:06;;;;;;;3.10;1.35;;;30.70;68.30;;;;;;2603089;54;20865;31
2023/06/01 09:31:48;;;;;;;2.75;1.27;;;30.70;68.00;;;;;;2602449;54;19961;31
2023/06/01 09:34:23;;;;;;;4.68;1.40;;;30.60;66.10;;;;;;2603599;54;20030;31
2023/06/01 09:36:59;;;;;;;3.83;1.40;;;30.70;66.40;;;;;;2621645;46;20089;31
2023/06/01 09:39:37;;;;;;;3.25;1.20;;;30.70;66.30;;;;;;2621481;46;20038;31
2023/06/01 09:42:15;;;;;;;2.47;1.10;;;30.60;67.30;;;;;;2603223;54;20866;31
2023/06/01 09:47:31;;;;;;;;;;;30.40;67.00;;;;;;2603702;54;20048;31
2023/06/01 09:50:11;;;;;;;2.10;1.30;;;30.50;68.30;;;;;;2622168;46;19941;31
2023/06/01 09:52:48;;;;;;;4.40;1.10;;;30.50;66.90;;;;;;2603314;54;20837;31
2023/06/01 09:55:23;;;;;;;2.15;1.20;;;30.50;67.20;;;;;;2603100;54;20059;31
2023/06/01 09:58:22;;;;;;;2.85;1.08;;;30.50;67.40;;;;;;2621779;47;20089;31
2023/06/01 10:01:04;;;;;;;3.30;1.30;;;30.60;66.80;;;;;;2603361;54;20464;31
2023/06/01 10:03:39;;;;;;;2.65;1.00;;;30.70;66.70;;;;;;2603137;54;20030;31
2023/06/01 10:06:18;;;;;;;2.17;1.15;;;30.80;65.50;;;;;;2621236;47;20030;31
2023/06/01 10:08:54;;;;;;;3.70;1.63;;;30.90;67.00;;;;;;2603212;54;20042;31
2023/06/01 10:11:29;;;;;;;2.83;1.33;;;30.80;65.40;;;;;;2603306;54;21563;31
2023/06/01 10:14:06;;;;;;;3.37;1.40;;;30.80;66.50;;;;;;2621471;47;21080;31
2023/06/01 10:16:41;;;;;;;3.35;1.40;;;30.90;67.20;;;;;;2603369;54;19935;31
2023/06/01 10:19:16;;;;;;;5.28;1.55;;;30.90;66.60;;;;;;2602479;54;20037;31
2023/06/01 10:21:56;;;;;;;3.45;1.52;;;31.00;67.00;;;;;;2603271;54;20034;31
2023/06/01 10:24:32;;;;;;;3.72;1.40;;;30.90;65.40;;;;;;2621662;47;20871;31
2023/06/01 10:27:11;;;;;;;3.85;1.50;;;30.80;65.60;;;;;;2602983;54;21291;31
2023/06/01 10:29:45;;;;;;;2.83;1.23;;;30.80;65.20;;;;;;2602959;54;20093;31
2023/06/01 10:32:45;;;;;;;2.65;1.20;;;30.80;66.50;;;;;;2603255;54;20029;31
2023/06/01 10:35:50;;;;;;;5.53;1.58;;;30.80;65.00;;;;;;2602894;54;20794;31
2023/06/01 10:38:44;;;;;;;3.28;1.27;;;30.80;65.00;;;;;;2621234;47;21152;31
2023/06/01 10:41:31;;;;;;;7.40;1.77;;;30.70;66.80;;;;;;2620694;47;20859;31
2023/06/01 10:44:09;;;;;;;4.47;1.10;;;30.70;64.40;;;;;;2602358;54;20505;31
2023/06/01 10:46:46;;;;;;;3.23;1.23;;;30.60;65.20;;;;;;2601695;54;20026;31
2023/06/01 10:49:24;;;;;;;4.05;1.50;;;30.60;66.00;;;;;;2602408;54;20038;31
2023/06/01 10:52:16;;;;;;;2.33;0.98;;;30.60;65.20;;;;;;2671345;39;20330;31
2023/06/01 10:54:53;;;;;;;3.40;1.30;;;30.70;66.60;;;;;;2603387;54;20034;31
2023/06/01 10:57:39;;;;;;;2.87;1.30;;;30.70;66.00;;;;;;2603747;54;21042;31
2023/06/01 11:00:22;;;;;;;3.35;1.38;;;30.80;67.40;;;;;;2604052;54;20988;31
2023/06/01 11:03:01;;;;;;;2.83;1.35;;;30.70;66.90;;;;;;2621976;46;20042;31
2023/06/01 11:05:47;;;;;;;5.05;1.55;;;30.70;66.80;;;;;;2610496;46;20843;31
2023/06/01 11:08:53;;;;;;;3.20;1.17;;;30.60;65.60;;;;;;2622118;46;19941;31
2023/06/01 11:12:03;;;;;;;2.42;1.10;;;30.60;66.30;;;;;;2603741;54;20030;31
2023/06/01 11:14:44;;;;;;;2.30;1.25;;;30.50;65.90;;;;;;2603631;54;20049;31
2023/06/01 11:17:32;;;;;;;2.60;1.10;;;30.50;62.90;;;;;;2603924;54;20034;31
2023/06/01 11:20:13;;;;;;;3.67;1.38;;;30.30;66.80;;;;;;2603915;54;20030;31
2023/06/01 11:22:51;;;;;;;4.50;1.45;;;30.30;66.50;;;;;;2603217;54;20030;31
2023/06/01 11:25:28;;;;;;;2.40;1.10;;;30.20;66.40;;;;;;2604003;54;20022;31
2023/06/01 11:28:05;;;;;;;4.60;2.00;;;30.20;66.50;;;;;;2603847;54;20085;31
2023/06/01 11:30:48;;;;;;;5.73;1.80;;;30.20;65.90;;;;;;2602914;54;21018;31
2023/06/01 11:33:38;;;;;;;4.10;1.57;;;30.20;66.50;;;;;;2791714;31;21633;31
2023/06/01 11:36:16;;;;;;;4.80;1.70;;;30.20;68.60;;;;;;2621355;46;19989;31
2023/06/01 11:38:52;;;;;;;3.28;1.67;;;30.10;66.30;;;;;;2702196;39;20395;31
2023/06/01 11:41:31;;;;;;;5.88;1.70;;;30.10;66.50;;;;;;2603505;54;20840;31
2023/06/01 11:44:08;;;;;;;3.47;1.60;;;30.00;66.90;;;;;;2603794;54;20049;31
2023/06/01 11:46:55;;;;;;;4.38;1.90;;;29.90;66.40;;;;;;2603788;54;20023;31
2023/06/01 11:49:32;;;;;;;2.72;1.67;;;29.90;66.20;;;;;;2604075;54;20033;31
2023/06/01 11:52:11;;;;;;;8.55;2.55;;;29.90;66.10;;;;;;2603048;54;20080;31
2023/06/01 11:54:47;;;;;;;6.10;2.00;;;29.90;67.70;;;;;;2603681;54;20031;31
2023/06/01 11:57:25;;;;;;;4.20;2.10;;;29.90;67.90;;;;;;2602773;54;20034;31
2023/06/01 12:00:02;;;;;;;4.90;1.60;;;29.80;69.00;;;;;;2614019;46;20038;31
2023/06/01 12:02:45;;;;;;;4.13;1.57;;;29.90;68.70;;;;;;2603606;54;20026;31
2023/06/01 12:05:22;;;;;;;4.28;1.75;;;29.70;68.70;;;;;;2622327;46;20031;31
2023/06/01 12:07:57;;;;;;;5.95;1.83;;;29.70;68.40;;;;;;2603772;54;20128;31
2023/06/01 12:10:36;;;;;;;4.22;1.75;;;29.70;69.10;;;;;;2622232;46;20034;31
2023/06/01 12:13:16;;;;;;;4.90;1.70;;;29.60;69.70;;;;;;2603786;54;20022;31
2023/06/01 12:15:58;;;;;;;4.28;1.90;;;29.60;69.90;;;;;;2622291;46;20112;31
2023/06/01 12:18:55;;;;;;;4.63;1.70;;;29.60;70.80;;;;;;2603862;54;20034;31
2023/06/01 12:21:33;;;;;;;3.88;1.80;;;29.70;69.60;;;;;;2603719;54;20886;31
2023/06/01 12:24:13;;;;;;;4.80;1.53;;;29.60;68.50;;;;;;2603205;54;20887;31
2023/06/01 12:26:49;;;;;;;2.65;1.50;;;29.60;67.80;;;;;;2603698;54;19957;31
2023/06/01 12:29:41;;;;;;;4.80;2.00;;;29.50;69.50;;;;;;2603486;54;20968;31
2023/06/01 12:32:17;;;;;;;4.22;1.85;;;29.50;70.60;;;;;;2603711;54;20057;31
2023/06/01 12:35:13;;;;;;;2.78;1.50;;;29.40;70.00;;;;;;2603796;54;20046;31
2023/06/01 12:37:51;;;;;;;5.20;1.70;;;29.40;69.90;;;;;;2603617;54;20038;31
2023/06/01 12:40:27;;;;;;;4.47;1.67;;;29.40;70.50;;;;;;2621599;46;20884;31
2023/06/01 12:43:02;;;;;;;3.78;1.38;;;29.30;69.00;;;;;;2603363;54;20057;31
2023/06/01 12:45:39;;;;;;;6.43;1.63;;;29.40;68.70;;;;;;2603256;54;20031;31
2023/06/01 12:48:36;;;;;;;3.95;1.55;;;29.30;68.60;;;;;;2603450;54;20779;31
2023/06/01 12:51:15;;;;;;;5.23;2.23;;;29.30;69.30;;;;;;2603488;54;20029;31
2023/06/01 12:53:57;;;;;;;5.07;1.65;;;29.20;68.40;;;;;;2697020;39;20239;31
2023/06/01 12:56:34;;;;;;;6.70;1.80;;;29.20;69.30;;;;;;2603330;54;20037;31
2023/06/01 12:59:12;;;;;;;3.90;2.30;;;29.20;69.50;;;;;;2603327;54;20320;31
2023/06/01 13:01:48;;;;;;;8.17;1.97;;;29.20;69.30;;;;;;2603147;54;21007;31
2023/06/01 13:04:26;;;;;;;6.70;1.90;;;29.20;69.90;;;;;;2603290;54;20031;31
2023/06/01 13:07:05;;;;;;;5.90;1.90;;;29.10;68.90;;;;;;2603587;54;20022;31
2023/06/01 13:09:43;;;;;;;4.68;1.95;;;29.10;69.80;;;;;;2603644;54;21919;31
2023/06/01 13:12:20;;;;;;;6.40;1.63;;;29.00;69.00;;;;;;2616029;46;20031;31
2023/06/01 13:14:56;;;;;;;6.93;2.05;;;29.00;69.40;;;;;;2603211;54;20814;31
2023/06/01 13:17:39;;;;;;;5.95;1.60;;;29.00;69.80;;;;;;2603524;54;20853;31
2023/06/01 13:20:19;;;;;;;9.37;2.23;;;29.00;69.80;;;;;;2701750;39;20501;31
2023/06/01 13:22:57;;;;;;;5.80;1.65;;;29.00;70.30;;;;;;2773503;31;20641;31
2023/06/01 13:25:36;;;;;;;3.58;1.75;;;29.00;70.40;;;;;;2603105;54;20816;31
2023/06/01 13:28:11;;;;;;;3.58;2.25;;;29.00;68.40;;;;;;2603294;54;20027;31
2023/06/01 13:30:47;;;;;;;4.03;1.75;;;29.00;69.30;;;;;;2621760;46;20802;31
2023/06/01 13:33:22;;;;;;;5.50;1.90;;;28.90;69.50;;;;;;2621831;46;20030;31
2023/06/01 13:35:58;;;;;;;;;;;29.00;70.10;;;;;;2603396;54;20819;31
2023/06/01 13:38:35;;;;;;;8.90;2.10;;;28.90;70.10;;;;;;2621795;46;19985;31
2023/06/01 13:41:11;;;;;;;7.10;2.10;;;28.90;70.00;;;;;;2621526;46;20034;31
2023/06/01 13:43:46;;;;;;;;;;;28.80;69.20;;;;;;2603321;54;20022;31
2023/06/01 13:46:23;;;;;;;3.50;1.95;;;28.80;68.90;;;;;;2603271;54;20652;31
2023/06/01 13:48:59;;;;;;;2.72;1.83;;;28.70;69.80;;;;;;2603203;54;20802;31
2023/06/01 13:51:34;;;;;;;3.83;2.20;;;28.70;70.20;;;;;;2603156;54;20916;31
2023/06/01 13:54:14;;;;;;;6.55;2.00;;;28.70;70.00;;;;;;2603052;54;20072;31
2023/06/01 13:56:49;;;;;;;8.25;1.95;;;28.60;70.40;;;;;;2603167;54;20026;31
2023/06/01 13:59:24;;;;;;;4.45;2.25;;;28.60;70.80;;;;;;2621758;47;20026;31
2023/06/01 14:01:59;;;;;;;5.00;1.70;;;28.60;70.40;;;;;;2603518;54;20031;31
2023/06/01 14:04:34;;;;;;;8.05;2.35;;;28.50;68.90;;;;;;2602862;54;20027;31
2023/06/01 14:07:09;;;;;;;6.60;2.20;;;28.50;70.70;;;;;;2701746;39;20497;31